Time;durP1;ratioP1;P1;durP2;ratioP2;P2;SDS_P1;SDS_P2;PMS_P1;PMS_P2;Temp;Humidity;BMP_temperature;BMP_pressure;BME280_temperature;BME280_humidity;BME280_pressure;Samples;Min_cycle;Max_cycle;Signal;HPM_P1;HPM_P2
2023/09/24 00:00:20;;;;;;;2.92;1.42;;;18.20;56.40;;;;;;5069022;28;20103;-84
2023/09/24 00:02:49;;;;;;;1.77;1.08;;;18.30;56.60;;;;;;5058094;28;20108;-78
2023/09/24 00:05:17;;;;;;;2.28;1.00;;;18.30;56.00;;;;;;5078574;28;20029;-79
2023/09/24 00:07:44;;;;;;;1.80;1.05;;;18.40;56.00;;;;;;5076484;28;20033;-81
2023/09/24 00:10:11;;;;;;;4.80;1.05;;;18.50;55.30;;;;;;5059580;28;20021;-80
2023/09/24 00:12:40;;;;;;;2.60;1.20;;;18.60;54.40;;;;;;5073763;28;20050;-79
2023/09/24 00:15:08;;;;;;;4.18;1.10;;;18.70;53.60;;;;;;5075475;28;20425;-81
2023/09/24 00:17:36;;;;;;;1.92;1.38;;;18.70;53.60;;;;;;5065556;28;20032;-79
2023/09/24 00:20:04;;;;;;;4.40;1.17;;;18.80;53.80;;;;;;5061489;28;20032;-80
2023/09/24 00:22:32;;;;;;;2.53;0.80;;;18.70;53.10;;;;;;5059028;28;20067;-80
2023/09/24 00:25:00;;;;;;;3.50;1.30;;;18.70;52.80;;;;;;5055659;28;20484;-78
2023/09/24 00:27:28;;;;;;;3.25;1.08;;;18.60;52.20;;;;;;5063595;28;20098;-79
2023/09/24 00:29:55;;;;;;;1.35;0.75;;;18.70;53.30;;;;;;5068704;28;20021;-80
2023/09/24 00:32:22;;;;;;;2.05;1.00;;;18.70;53.50;;;;;;5066007;28;20376;-80
2023/09/24 00:34:50;;;;;;;1.23;0.90;;;18.70;53.90;;;;;;5062168;28;20025;-79
2023/09/24 00:37:18;;;;;;;2.38;0.77;;;18.80;54.00;;;;;;5062503;28;20486;-79
2023/09/24 00:39:45;;;;;;;3.25;0.88;;;18.80;52.90;;;;;;5074739;28;20032;-82
2023/09/24 00:42:13;;;;;;;2.35;0.60;;;18.90;52.40;;;;;;5069099;28;20905;-80
2023/09/24 00:44:41;;;;;;;1.42;0.70;;;19.10;52.30;;;;;;5072812;28;20395;-80
2023/09/24 00:47:08;;;;;;;1.05;0.60;;;19.20;51.50;;;;;;5069482;28;20043;-80
2023/09/24 00:49:36;;;;;;;1.25;0.60;;;19.30;51.10;;;;;;5069549;28;20033;-83
2023/09/24 00:52:03;;;;;;;2.17;0.57;;;19.30;51.10;;;;;;5076397;28;20034;-78
2023/09/24 00:54:31;;;;;;;1.20;0.60;;;19.30;50.30;;;;;;5069120;28;20100;-79
2023/09/24 00:57:00;;;;;;;1.70;0.80;;;19.30;49.80;;;;;;5062422;28;20033;-79
2023/09/24 00:59:28;;;;;;;0.80;0.55;;;19.40;50.50;;;;;;5071625;28;20043;-77
2023/09/24 01:01:57;;;;;;;2.88;0.80;;;19.60;48.60;;;;;;5059629;28;20028;-80
2023/09/24 01:04:24;;;;;;;1.50;0.77;;;19.60;49.40;;;;;;5065879;28;20024;-79
2023/09/24 01:06:52;;;;;;;1.55;0.60;;;19.70;48.70;;;;;;5061071;28;20036;-83
2023/09/24 01:09:19;;;;;;;3.20;0.80;;;19.70;49.20;;;;;;5064942;28;20021;-79
2023/09/24 01:11:52;;;;;;;1.70;0.70;;;19.70;49.30;;;;;;5073120;28;20410;-82
2023/09/24 01:14:20;;;;;;;1.10;0.68;;;19.80;49.00;;;;;;5071629;28;20068;-82
2023/09/24 01:16:47;;;;;;;1.33;0.70;;;19.80;49.00;;;;;;5070489;28;20040;-80
2023/09/24 01:19:15;;;;;;;1.60;0.73;;;19.80;48.90;;;;;;5068764;28;20067;-81
2023/09/24 01:21:43;;;;;;;2.53;0.70;;;19.80;48.70;;;;;;5064804;28;20128;-84
2023/09/24 01:24:10;;;;;;;1.35;0.50;;;19.80;48.40;;;;;;5069791;28;20032;-77
2023/09/24 01:26:38;;;;;;;1.35;0.57;;;19.80;48.40;;;;;;5067134;28;20033;-85
2023/09/24 01:29:07;;;;;;;1.85;0.50;;;19.80;48.30;;;;;;5063938;28;20107;-82
2023/09/24 01:31:38;;;;;;;2.60;0.60;;;19.80;48.10;;;;;;5071323;28;20039;-77
2023/09/24 01:34:05;;;;;;;2.30;0.60;;;19.90;48.60;;;;;;5061718;28;20024;-80
2023/09/24 01:36:33;;;;;;;2.30;0.77;;;19.90;48.40;;;;;;5073534;28;20051;-78
2023/09/24 01:39:01;;;;;;;1.70;0.88;;;20.00;47.70;;;;;;5068453;28;20028;-76
2023/09/24 01:41:30;;;;;;;1.48;0.60;;;20.10;48.30;;;;;;5073803;28;20032;-84
2023/09/24 01:43:59;;;;;;;1.20;0.60;;;20.20;47.20;;;;;;5073604;28;20025;-78
2023/09/24 01:46:27;;;;;;;1.15;0.70;;;20.20;47.30;;;;;;5074741;28;20024;-85
2023/09/24 01:48:56;;;;;;;1.23;0.52;;;20.30;47.90;;;;;;5071353;28;20016;-80
2023/09/24 01:51:23;;;;;;;2.53;0.85;;;20.30;47.50;;;;;;5073539;28;20024;-76
2023/09/24 01:53:51;;;;;;;0.77;0.68;;;20.50;47.40;;;;;;5066353;28;20020;-78
2023/09/24 01:56:19;;;;;;;0.88;0.65;;;20.60;47.20;;;;;;5074237;28;20027;-77
2023/09/24 01:58:46;;;;;;;1.48;0.60;;;20.70;47.20;;;;;;5066755;28;20082;-80
2023/09/24 02:01:14;;;;;;;1.15;0.63;;;20.90;47.40;;;;;;5069454;28;20028;-77
2023/09/24 02:03:41;;;;;;;2.15;0.60;;;21.10;46.40;;;;;;5067224;28;20023;-81
2023/09/24 02:06:09;;;;;;;0.98;0.50;;;21.20;44.90;;;;;;5073174;28;20040;-79
2023/09/24 02:08:36;;;;;;;1.73;0.77;;;21.20;45.50;;;;;;5062854;28;20090;-78
2023/09/24 02:11:04;;;;;;;1.17;0.70;;;21.40;44.50;;;;;;5073260;28;20024;-77
2023/09/24 02:13:31;;;;;;;2.67;0.60;;;21.60;44.10;;;;;;5071208;28;20067;-82
2023/09/24 02:16:06;;;;;;;1.42;0.70;;;21.60;44.70;;;;;;5070316;28;20027;-84
2023/09/24 02:18:33;;;;;;;1.43;0.70;;;21.60;45.20;;;;;;5072827;28;20024;-78
2023/09/24 02:21:01;;;;;;;1.08;0.70;;;21.60;44.60;;;;;;5062839;28;20091;-82
2023/09/24 02:23:28;;;;;;;2.83;0.90;;;21.70;44.60;;;;;;5073182;28;20035;-82
2023/09/24 02:25:56;;;;;;;2.58;1.13;;;21.80;42.70;;;;;;5071889;28;20040;-82
2023/09/24 02:28:24;;;;;;;1.95;0.73;;;21.80;43.60;;;;;;5071853;28;20052;-79
2023/09/24 02:30:53;;;;;;;3.55;0.60;;;21.90;42.40;;;;;;5060540;28;20082;-79
2023/09/24 02:33:21;;;;;;;1.90;0.57;;;21.80;42.10;;;;;;5071935;28;20472;-78
2023/09/24 02:35:49;;;;;;;1.70;0.60;;;21.80;42.40;;;;;;5067658;28;20029;-84
2023/09/24 02:38:16;;;;;;;1.27;0.70;;;21.90;43.30;;;;;;5061510;28;20074;-81
2023/09/24 02:40:44;;;;;;;1.13;0.68;;;22.00;43.40;;;;;;5073227;28;20101;-84
2023/09/24 02:43:12;;;;;;;1.75;0.70;;;22.20;42.90;;;;;;5071477;28;20091;-80
2023/09/24 02:45:41;;;;;;;1.65;0.82;;;22.20;42.90;;;;;;5055777;28;20040;-83
2023/09/24 02:48:09;;;;;;;2.67;0.60;;;22.30;42.40;;;;;;5069672;28;20035;-79
2023/09/24 02:50:36;;;;;;;1.38;0.80;;;22.30;42.80;;;;;;5072489;28;20491;-79
2023/09/24 02:53:05;;;;;;;2.40;1.30;;;22.40;42.90;;;;;;5058123;28;20047;-77
2023/09/24 02:55:33;;;;;;;0.63;0.60;;;22.60;43.50;;;;;;5053469;28;20017;-77
2023/09/24 02:58:03;;;;;;;1.55;0.73;;;22.70;42.70;;;;;;5064939;28;20024;-76
2023/09/24 03:00:36;;;;;;;1.45;1.08;;;22.80;42.20;;;;;;5067949;28;20052;-82
2023/09/24 03:03:05;;;;;;;1.85;0.90;;;22.60;42.30;;;;;;5068861;28;20036;-79
2023/09/24 03:05:33;;;;;;;1.02;0.75;;;22.50;42.10;;;;;;5053449;28;20504;-83
2023/09/24 03:08:05;;;;;;;1.42;0.90;;;22.60;42.10;;;;;;5054110;28;20033;-83
2023/09/24 03:10:33;;;;;;;1.17;0.75;;;22.60;41.80;;;;;;5055550;28;20049;-81
2023/09/24 03:13:02;;;;;;;1.25;0.60;;;22.70;42.10;;;;;;5072428;28;20020;-80
2023/09/24 03:15:29;;;;;;;3.42;0.90;;;22.70;41.40;;;;;;5073793;28;20044;-82
2023/09/24 03:17:58;;;;;;;1.40;0.70;;;22.80;42.00;;;;;;5071945;28;20104;-83
2023/09/24 03:20:28;;;;;;;0.68;0.50;;;22.80;40.90;;;;;;5073712;28;20058;-79
2023/09/24 03:23:01;;;;;;;1.48;0.63;;;22.80;40.60;;;;;;5073738;28;20372;-81
2023/09/24 03:25:29;;;;;;;0.73;0.57;;;22.80;41.20;;;;;;5060928;28;20035;-80
2023/09/24 03:28:00;;;;;;;0.60;0.60;;;22.90;40.90;;;;;;5072271;28;20040;-80
2023/09/24 03:30:28;;;;;;;1.70;0.80;;;22.90;40.90;;;;;;5074797;28;20020;-82
2023/09/24 03:32:57;;;;;;;1.50;0.70;;;23.00;40.70;;;;;;5054866;28;20037;-83
2023/09/24 03:35:26;;;;;;;1.58;1.00;;;23.10;39.70;;;;;;5058661;28;20025;-79
2023/09/24 03:37:55;;;;;;;3.10;0.80;;;23.20;40.30;;;;;;5070241;28;20048;-81
2023/09/24 03:40:24;;;;;;;1.58;0.80;;;23.20;39.50;;;;;;5071024;28;20086;-82
2023/09/24 03:42:51;;;;;;;1.38;0.75;;;23.30;40.10;;;;;;5073559;28;20435;-79
2023/09/24 03:45:20;;;;;;;1.13;0.52;;;23.30;39.30;;;;;;5072653;28;20060;-76
2023/09/24 03:47:48;;;;;;;1.80;0.80;;;23.50;39.50;;;;;;5071951;28;20056;-83
2023/09/24 03:50:17;;;;;;;1.45;0.68;;;23.60;39.90;;;;;;5070868;28;20115;-78
2023/09/24 03:52:46;;;;;;;0.98;0.60;;;23.60;39.80;;;;;;5073774;28;20033;-77
2023/09/24 03:55:15;;;;;;;1.23;0.60;;;23.60;39.60;;;;;;5071807;28;20016;-83
2023/09/24 03:57:44;;;;;;;2.15;0.85;;;23.70;39.60;;;;;;5060310;28;20104;-82
2023/09/24 04:00:21;;;;;;;1.35;0.60;;;23.70;39.80;;;;;;5072543;28;20017;-84
2023/09/24 04:02:49;;;;;;;1.75;0.60;;;23.70;39.80;;;;;;5059089;28;20032;-84
2023/09/24 04:05:19;;;;;;;0.73;0.57;;;23.70;39.90;;;;;;5056712;28;20052;-82
2023/09/24 04:07:49;;;;;;;1.02;0.60;;;23.70;38.60;;;;;;5055277;28;20040;-77
2023/09/24 04:10:17;;;;;;;1.83;0.50;;;23.80;39.20;;;;;;5062213;28;20061;-77
2023/09/24 04:12:52;;;;;;;1.08;0.60;;;23.80;38.70;;;;;;5059158;28;20442;-79
2023/09/24 04:15:27;;;;;;;3.22;0.50;;;23.80;38.80;;;;;;5067742;28;20099;-80
2023/09/24 04:17:57;;;;;;;;;;;23.90;38.70;;;;;;5063381;28;20066;-79
2023/09/24 04:20:29;;;;;;;1.98;0.90;;;23.90;38.50;;;;;;5052725;28;20011;-77
2023/09/24 04:22:56;;;;;;;2.60;0.70;;;23.90;39.40;;;;;;5054289;28;20021;-84
2023/09/24 04:25:26;;;;;;;1.65;0.50;;;23.80;38.70;;;;;;5055471;28;20055;-85
2023/09/24 04:27:53;;;;;;;1.30;0.65;;;23.80;38.90;;;;;;5070325;28;20021;-82
2023/09/24 04:30:24;;;;;;;1.70;0.65;;;23.80;39.50;;;;;;5075794;28;20047;-84
2023/09/24 04:32:57;;;;;;;1.75;0.50;;;23.80;39.50;;;;;;5075985;28;20024;-83
2023/09/24 04:35:27;;;;;;;2.17;0.60;;;23.80;38.60;;;;;;5076033;28;20023;-76
2023/09/24 04:37:55;;;;;;;1.17;0.70;;;23.80;37.80;;;;;;5075314;28;20044;-76
2023/09/24 04:40:23;;;;;;;1.70;0.88;;;23.70;38.70;;;;;;5058130;28;20050;-77
2023/09/24 04:42:51;;;;;;;2.95;0.70;;;23.70;39.10;;;;;;5075623;28;20479;-78
2023/09/24 04:45:18;;;;;;;0.90;0.47;;;23.70;39.20;;;;;;5060119;28;20160;-78
2023/09/24 04:47:48;;;;;;;2.80;0.90;;;23.70;39.00;;;;;;5057775;28;20120;-78
2023/09/24 04:50:16;;;;;;;2.78;0.82;;;23.70;39.20;;;;;;5069290;28;20049;-78
2023/09/24 04:52:44;;;;;;;1.88;0.60;;;23.70;38.60;;;;;;5076593;28;20108;-77
2023/09/24 04:55:12;;;;;;;1.45;0.60;;;23.70;38.70;;;;;;5073935;28;20027;-82
2023/09/24 04:57:39;;;;;;;7.50;0.60;;;23.70;39.20;;;;;;5065535;28;20059;-83
2023/09/24 05:00:07;;;;;;;1.10;0.77;;;23.70;39.30;;;;;;5065707;28;20043;-77
2023/09/24 05:02:35;;;;;;;1.80;0.50;;;23.70;39.30;;;;;;5061819;28;20025;-78
2023/09/24 05:05:03;;;;;;;2.13;0.57;;;23.70;39.10;;;;;;5073944;28;20495;-77
2023/09/24 05:07:30;;;;;;;1.65;0.40;;;23.70;39.50;;;;;;5083242;28;20116;-78
2023/09/24 05:09:57;;;;;;;2.63;0.80;;;23.70;39.40;;;;;;5066028;28;20021;-78
2023/09/24 05:12:25;;;;;;;2.92;0.80;;;23.70;39.30;;;;;;5073928;28;20106;-76
2023/09/24 05:14:52;;;;;;;1.05;0.43;;;23.60;39.60;;;;;;5065496;28;20468;-80
2023/09/24 05:17:20;;;;;;;2.25;0.60;;;23.50;39.20;;;;;;5076237;28;20060;-77
2023/09/24 05:19:47;;;;;;;1.55;0.55;;;23.40;39.70;;;;;;5068108;28;20021;-78
2023/09/24 05:22:15;;;;;;;2.08;0.43;;;23.40;39.60;;;;;;5080096;28;20027;-77
2023/09/24 05:24:42;;;;;;;2.83;1.00;;;23.40;39.60;;;;;;5068441;28;20070;-77
2023/09/24 05:27:09;;;;;;;1.30;0.70;;;23.30;40.00;;;;;;5081087;28;20109;-77
2023/09/24 05:29:37;;;;;;;1.38;0.85;;;23.30;40.20;;;;;;5080311;28;20043;-76
2023/09/24 05:32:05;;;;;;;1.00;0.80;;;23.30;40.70;;;;;;5100885;28;20087;-81
2023/09/24 05:34:32;;;;;;;1.77;0.68;;;23.30;40.70;;;;;;5094183;28;20020;-78
2023/09/24 05:37:00;;;;;;;3.45;0.80;;;23.20;40.60;;;;;;5073293;28;20041;-81
2023/09/24 05:39:27;;;;;;;1.17;0.52;;;23.20;40.50;;;;;;5078769;28;20025;-81
2023/09/24 05:41:55;;;;;;;1.25;0.70;;;23.20;40.60;;;;;;5066136;28;20032;-78
2023/09/24 05:44:24;;;;;;;1.77;0.77;;;23.10;40.90;;;;;;5070889;28;20088;-78
2023/09/24 05:46:52;;;;;;;1.38;0.60;;;23.00;41.30;;;;;;5073042;28;20043;-78
2023/09/24 05:49:19;;;;;;;1.40;0.50;;;22.90;41.00;;;;;;5067432;28;20045;-78
2023/09/24 05:51:46;;;;;;;1.67;0.50;;;22.80;41.50;;;;;;5074911;28;20032;-78
2023/09/24 05:54:14;;;;;;;2.50;0.70;;;22.80;42.00;;;;;;5067714;28;20024;-78
2023/09/24 05:56:41;;;;;;;1.70;0.60;;;22.70;42.00;;;;;;5073280;28;20028;-77
2023/09/24 05:59:09;;;;;;;0.68;0.50;;;22.60;42.30;;;;;;5068337;28;20037;-76
2023/09/24 06:01:36;;;;;;;0.98;0.63;;;22.40;42.20;;;;;;5064958;28;20483;-81
2023/09/24 06:04:07;;;;;;;1.40;0.80;;;22.30;42.60;;;;;;5075522;28;20398;-79
2023/09/24 06:06:34;;;;;;;3.42;0.80;;;22.20;42.40;;;;;;5057515;28;20064;-78
2023/09/24 06:09:03;;;;;;;6.35;0.80;;;22.10;42.90;;;;;;5069956;28;20364;-78
2023/09/24 06:11:31;;;;;;;3.10;0.65;;;22.00;43.30;;;;;;5073766;28;20048;-77
2023/09/24 06:13:59;;;;;;;1.38;0.65;;;21.80;43.20;;;;;;5064640;28;20023;-77
2023/09/24 06:16:26;;;;;;;1.58;0.60;;;21.80;44.10;;;;;;5074124;28;20029;-77
2023/09/24 06:18:54;;;;;;;2.70;0.50;;;21.70;43.90;;;;;;5079762;28;20030;-78
2023/09/24 06:21:21;;;;;;;1.10;0.60;;;21.60;44.50;;;;;;5064613;28;20025;-78
2023/09/24 06:23:51;;;;;;;1.73;0.60;;;21.50;44.60;;;;;;5071712;28;20017;-80
2023/09/24 06:26:20;;;;;;;4.00;0.50;;;21.40;44.30;;;;;;5072533;28;20124;-78
2023/09/24 06:28:47;;;;;;;2.45;0.60;;;21.30;44.40;;;;;;5062191;28;20100;-79
2023/09/24 06:31:15;;;;;;;0.65;0.50;;;21.20;44.80;;;;;;5070147;28;20035;-81
2023/09/24 06:33:43;;;;;;;1.35;0.50;;;21.20;45.20;;;;;;5065512;28;20124;-83
2023/09/24 06:36:10;;;;;;;1.92;0.57;;;21.10;45.10;;;;;;5068037;28;20536;-81
2023/09/24 06:38:39;;;;;;;1.35;0.55;;;21.10;45.10;;;;;;5070068;28;20032;-77
2023/09/24 06:41:06;;;;;;;1.85;0.70;;;21.00;45.40;;;;;;5062066;28;20040;-76
2023/09/24 06:43:34;;;;;;;1.73;0.70;;;21.00;45.80;;;;;;5059182;28;20405;-79
2023/09/24 06:46:08;;;;;;;1.38;0.60;;;20.90;46.00;;;;;;5053963;28;20053;-82
2023/09/24 06:48:36;;;;;;;2.22;0.60;;;20.80;46.00;;;;;;5063654;28;20032;-79
2023/09/24 06:51:09;;;;;;;2.30;0.60;;;20.70;46.10;;;;;;5062394;28;20021;-80
2023/09/24 06:53:40;;;;;;;0.95;0.50;;;20.60;46.40;;;;;;5071416;28;20029;-84
2023/09/24 06:56:09;;;;;;;2.33;0.95;;;20.50;46.60;;;;;;5062821;28;20021;-81
2023/09/24 06:58:37;;;;;;;0.70;0.50;;;20.50;46.30;;;;;;5057088;28;20017;-81
2023/09/24 07:01:06;;;;;;;2.10;0.55;;;20.40;46.40;;;;;;5072111;28;20027;-79
2023/09/24 07:03:33;;;;;;;1.65;0.50;;;20.30;47.00;;;;;;5075060;28;20530;-79
2023/09/24 07:06:05;;;;;;;1.17;0.80;;;20.20;47.10;;;;;;5072094;28;20036;-79
2023/09/24 07:08:33;;;;;;;1.55;0.57;;;20.10;47.60;;;;;;5068821;28;20028;-77
2023/09/24 07:11:25;;;;;;;0.85;0.68;;;20.00;47.90;;;;;;5054061;28;20574;-78
2023/09/24 07:13:54;;;;;;;0.82;0.60;;;19.90;48.20;;;;;;5053400;28;20021;-79
2023/09/24 07:16:26;;;;;;;2.60;0.68;;;19.80;48.40;;;;;;5053089;28;20361;-77
2023/09/24 07:18:54;;;;;;;1.60;0.60;;;19.70;48.60;;;;;;5051683;28;20384;-77
2023/09/24 07:21:28;;;;;;;1.35;0.70;;;19.70;48.60;;;;;;5058392;28;20568;-79
2023/09/24 07:23:58;;;;;;;1.35;0.43;;;19.60;49.20;;;;;;5072598;28;20422;-82
2023/09/24 07:26:26;;;;;;;0.82;0.60;;;19.50;49.30;;;;;;5072831;28;20028;-80
2023/09/24 07:28:54;;;;;;;1.33;1.05;;;19.50;49.30;;;;;;5072763;28;20024;-79
2023/09/24 07:31:23;;;;;;;1.38;0.70;;;19.30;49.70;;;;;;5069940;28;20025;-83
2023/09/24 07:33:55;;;;;;;0.70;0.57;;;19.30;49.80;;;;;;5058585;28;20031;-83
2023/09/24 07:36:23;;;;;;;3.33;1.35;;;19.20;50.00;;;;;;5052600;28;20045;-81
2023/09/24 07:38:51;;;;;;;3.15;1.67;;;19.20;50.30;;;;;;5052757;28;20024;-82
2023/09/24 07:41:20;;;;;;;4.90;0.98;;;19.10;50.70;;;;;;5055562;28;20108;-84
2023/09/24 07:43:48;;;;;;;1.23;0.73;;;19.10;50.80;;;;;;5055424;28;20025;-79
2023/09/24 07:46:16;;;;;;;2.75;0.65;;;19.00;50.50;;;;;;5052601;28;20082;-83
2023/09/24 07:48:48;;;;;;;3.13;0.73;;;19.00;50.80;;;;;;5052581;28;20048;-84
2023/09/24 07:51:19;;;;;;;1.83;0.70;;;18.80;51.20;;;;;;5054011;28;20037;-82
2023/09/24 07:53:47;;;;;;;0.93;0.60;;;18.80;51.20;;;;;;5072647;28;20029;-81
2023/09/24 07:56:14;;;;;;;1.05;0.55;;;18.80;51.40;;;;;;5072382;28;20032;-83
2023/09/24 07:58:42;;;;;;;2.65;0.73;;;18.70;51.60;;;;;;5062786;28;20041;-83
2023/09/24 08:01:13;;;;;;;1.73;0.80;;;18.70;51.80;;;;;;5075885;28;20044;-81
2023/09/24 08:03:42;;;;;;;1.98;0.60;;;18.70;51.80;;;;;;5076889;28;20024;-79
2023/09/24 08:06:10;;;;;;;3.90;0.75;;;18.60;52.10;;;;;;5082793;28;20060;-79
2023/09/24 08:08:39;;;;;;;4.63;1.20;;;18.50;52.20;;;;;;5079904;28;20025;-81
2023/09/24 08:11:07;;;;;;;2.67;1.10;;;18.50;52.30;;;;;;5078083;28;20112;-80
2023/09/24 08:13:35;;;;;;;6.65;1.10;;;18.50;52.80;;;;;;5063224;28;20100;-78
2023/09/24 08:16:02;;;;;;;0.98;0.80;;;18.40;52.80;;;;;;5061116;28;20055;-86
2023/09/24 08:18:30;;;;;;;1.90;0.70;;;18.30;53.10;;;;;;5059292;28;20052;-79
2023/09/24 08:20:58;;;;;;;1.40;0.90;;;18.30;53.40;;;;;;5056619;28;20546;-78
2023/09/24 08:23:25;;;;;;;1.92;0.90;;;18.30;53.40;;;;;;5067558;28;20032;-79
2023/09/24 08:25:53;;;;;;;1.10;0.77;;;18.20;53.70;;;;;;5068166;28;20037;-80
2023/09/24 08:28:20;;;;;;;1.95;0.70;;;18.20;53.60;;;;;;5072751;28;20024;-81
2023/09/24 08:30:49;;;;;;;1.65;0.60;;;18.20;53.90;;;;;;5066161;28;20368;-81
2023/09/24 08:33:17;;;;;;;0.93;0.65;;;18.10;53.80;;;;;;5076024;28;20024;-81
2023/09/24 08:35:45;;;;;;;5.10;1.00;;;18.10;54.00;;;;;;5075181;28;20413;-79
2023/09/24 08:38:14;;;;;;;0.77;0.70;;;18.10;54.10;;;;;;5067009;28;20027;-80
2023/09/24 08:40:42;;;;;;;2.10;0.80;;;18.00;54.30;;;;;;5067307;28;20032;-81
2023/09/24 08:43:14;;;;;;;3.83;0.90;;;18.00;54.40;;;;;;5076006;28;20115;-79
2023/09/24 08:45:42;;;;;;;3.40;0.80;;;17.90;54.50;;;;;;5075634;28;20073;-80
2023/09/24 08:48:12;;;;;;;3.20;1.10;;;17.90;54.50;;;;;;5075069;28;20511;-84
2023/09/24 08:50:41;;;;;;;1.20;0.70;;;17.90;54.70;;;;;;5072151;28;20052;-79
2023/09/24 08:53:13;;;;;;;3.50;1.30;;;17.80;54.70;;;;;;5064388;28;20090;-79
2023/09/24 08:55:45;;;;;;;3.38;1.20;;;17.80;55.00;;;;;;5082534;28;20032;-82
2023/09/24 08:58:12;;;;;;;1.27;0.70;;;17.80;55.40;;;;;;5073918;28;20028;-83
2023/09/24 09:00:43;;;;;;;1.52;0.65;;;17.80;55.50;;;;;;5082286;28;20025;-82
2023/09/24 09:03:11;;;;;;;1.95;0.80;;;17.80;55.40;;;;;;5059560;28;20025;-82
2023/09/24 09:05:39;;;;;;;1.38;0.80;;;17.80;55.50;;;;;;5071466;28;20020;-81
2023/09/24 09:08:07;;;;;;;3.00;1.23;;;17.80;55.60;;;;;;5065825;28;20043;-83
2023/09/24 09:10:37;;;;;;;1.40;0.70;;;17.80;55.60;;;;;;5076469;28;20078;-81
2023/09/24 09:13:18;;;;;;;2.45;1.20;;;17.80;55.80;;;;;;5072874;28;20035;-79
2023/09/24 09:15:50;;;;;;;1.95;1.15;;;17.70;55.90;;;;;;5087763;28;20494;-81
2023/09/24 09:18:24;;;;;;;2.03;1.00;;;17.70;56.00;;;;;;5093419;28;20028;-83
2023/09/24 09:21:00;;;;;;;4.57;1.38;;;17.70;56.20;;;;;;5095656;28;20036;-80
2023/09/24 09:23:44;;;;;;;5.75;1.77;;;17.70;56.50;;;;;;5091523;28;20052;-79
2023/09/24 09:26:12;;;;;;;4.22;1.20;;;17.70;56.80;;;;;;5074965;28;20021;-79
2023/09/24 09:28:39;;;;;;;4.40;1.65;;;17.70;57.00;;;;;;5062444;28;20029;-79
2023/09/24 09:31:11;;;;;;;4.35;1.40;;;17.70;56.90;;;;;;5056501;28;20391;-81
2023/09/24 09:33:47;;;;;;;2.90;1.58;;;17.60;57.20;;;;;;5064496;28;20108;-80
2023/09/24 09:36:25;;;;;;;2.47;1.23;;;17.60;57.30;;;;;;5066529;28;20040;-80
2023/09/24 09:38:54;;;;;;;1.55;1.17;;;17.50;57.40;;;;;;5073860;28;20475;-82
2023/09/24 09:41:24;;;;;;;2.90;1.02;;;17.60;57.50;;;;;;5066227;28;20086;-78
2023/09/24 09:43:53;;;;;;;3.15;0.93;;;17.50;57.50;;;;;;5054906;28;20395;-83
2023/09/24 09:46:25;;;;;;;3.60;0.90;;;17.50;57.40;;;;;;5055839;28;20044;-82
2023/09/24 09:48:56;;;;;;;3.70;1.15;;;17.50;57.50;;;;;;5074304;28;20025;-79
2023/09/24 09:51:25;;;;;;;2.80;0.82;;;17.50;57.50;;;;;;5066140;28;20028;-82
2023/09/24 09:53:55;;;;;;;1.98;1.10;;;17.50;57.60;;;;;;5073303;28;20069;-82
2023/09/24 09:56:24;;;;;;;3.30;1.10;;;17.50;57.60;;;;;;5072147;28;20020;-84
2023/09/24 09:58:53;;;;;;;2.38;0.80;;;17.50;57.60;;;;;;5054517;28;20025;-80
2023/09/24 10:01:20;;;;;;;2.60;0.80;;;17.50;57.60;;;;;;5054446;28;20067;-79
2023/09/24 10:03:51;;;;;;;4.00;0.80;;;17.50;57.60;;;;;;5062107;28;20021;-81
2023/09/24 10:06:19;;;;;;;5.35;1.50;;;17.40;57.50;;;;;;5068919;28;20350;-81
2023/09/24 10:08:47;;;;;;;4.45;1.17;;;17.40;57.70;;;;;;5056802;28;20105;-80
2023/09/24 10:11:33;;;;;;;2.15;1.10;;;17.40;57.90;;;;;;5073276;28;20424;-81
2023/09/24 10:14:05;;;;;;;1.27;0.77;;;17.40;58.00;;;;;;5068541;28;20021;-80
2023/09/24 10:16:37;;;;;;;3.05;0.73;;;17.40;57.80;;;;;;5068587;28;20098;-79
2023/09/24 10:19:05;;;;;;;2.28;1.00;;;17.30;57.80;;;;;;5057946;28;20029;-83
2023/09/24 10:21:40;;;;;;;4.10;1.13;;;17.30;58.00;;;;;;5072166;28;20036;-83
2023/09/24 10:24:20;;;;;;;1.75;0.90;;;17.30;58.20;;;;;;5062705;28;20032;-79
2023/09/24 10:26:54;;;;;;;2.17;1.10;;;17.30;58.20;;;;;;5066940;28;20071;-79
2023/09/24 10:29:55;;;;;;;1.20;0.93;;;17.30;58.50;;;;;;5068054;28;20020;-80
2023/09/24 10:32:24;;;;;;;2.17;1.10;;;17.30;58.50;;;;;;5070848;28;20031;-80
2023/09/24 10:35:14;;;;;;;2.67;1.10;;;17.20;58.40;;;;;;5072537;28;20032;-78
2023/09/24 10:38:00;;;;;;;2.55;1.02;;;17.20;58.50;;;;;;5065107;28;20048;-83
2023/09/24 10:40:28;;;;;;;1.50;0.82;;;17.20;58.60;;;;;;5065088;28;20031;-80
2023/09/24 10:43:13;;;;;;;2.25;0.85;;;17.20;58.60;;;;;;5071860;28;20426;-80
2023/09/24 10:45:40;;;;;;;1.27;0.75;;;17.20;58.60;;;;;;5072674;28;20516;-82
2023/09/24 10:48:08;;;;;;;1.88;1.10;;;17.20;58.50;;;;;;5055050;28;20078;-81
2023/09/24 10:50:39;;;;;;;0.90;0.73;;;17.20;58.60;;;;;;5071606;28;20541;-80
2023/09/24 10:53:08;;;;;;;1.55;0.70;;;17.20;58.60;;;;;;5069181;28;20039;-81
2023/09/24 10:55:39;;;;;;;1.15;0.82;;;17.20;58.70;;;;;;5073395;28;20078;-81
2023/09/24 10:58:12;;;;;;;1.80;0.60;;;17.20;58.90;;;;;;5069616;28;20036;-79
2023/09/24 11:00:41;;;;;;;1.83;0.70;;;17.20;59.10;;;;;;5055916;28;20032;-83
2023/09/24 11:03:13;;;;;;;1.83;0.75;;;17.20;59.20;;;;;;5060046;28;20054;-81
2023/09/24 11:05:45;;;;;;;3.63;0.85;;;17.20;59.20;;;;;;5072095;28;20447;-79
2023/09/24 11:08:14;;;;;;;0.80;0.80;;;17.20;59.30;;;;;;5069522;28;20046;-80
2023/09/24 11:10:46;;;;;;;3.17;1.10;;;17.10;59.40;;;;;;5073332;28;20048;-80
2023/09/24 11:13:13;;;;;;;0.80;0.80;;;17.10;59.40;;;;;;5073294;28;20020;-80
2023/09/24 11:15:42;;;;;;;2.25;0.95;;;17.20;59.60;;;;;;5073048;28;20024;-79
2023/09/24 11:18:13;;;;;;;4.10;0.90;;;17.20;59.60;;;;;;5065230;28;20071;-82
2023/09/24 11:20:49;;;;;;;3.53;0.90;;;17.20;59.80;;;;;;5056490;28;20029;-80
2023/09/24 11:23:17;;;;;;;0.80;0.60;;;17.10;59.80;;;;;;5067070;28;20044;-79
2023/09/24 11:25:49;;;;;;;2.80;1.00;;;17.10;60.00;;;;;;5072694;28;20035;-78
2023/09/24 11:28:19;;;;;;;6.47;1.00;;;17.10;59.90;;;;;;5066986;28;20087;-79
2023/09/24 11:30:49;;;;;;;1.98;1.00;;;17.10;60.40;;;;;;5052924;28;20036;-80
2023/09/24 11:33:20;;;;;;;1.88;1.10;;;17.00;60.50;;;;;;5052596;28;20037;-79
2023/09/24 11:35:50;;;;;;;2.10;0.60;;;17.00;60.50;;;;;;5058465;28;20021;-79
2023/09/24 11:38:37;;;;;;;1.75;0.77;;;17.00;60.50;;;;;;5054496;28;20035;-81
2023/09/24 11:41:12;;;;;;;1.40;0.70;;;17.00;60.40;;;;;;5052354;28;20422;-80
2023/09/24 11:43:40;;;;;;;1.40;0.57;;;17.00;60.40;;;;;;5055037;28;20029;-81
2023/09/24 11:46:21;;;;;;;1.23;0.80;;;17.00;60.60;;;;;;5058606;28;20427;-81
2023/09/24 11:48:49;;;;;;;2.85;0.88;;;17.00;60.70;;;;;;5062548;28;20033;-83
2023/09/24 11:51:16;;;;;;;1.10;0.70;;;17.00;60.60;;;;;;5063216;28;20036;-83
2023/09/24 11:53:43;;;;;;;2.15;0.77;;;17.10;60.50;;;;;;5072365;28;20029;-82
2023/09/24 11:56:11;;;;;;;3.42;0.80;;;17.00;60.40;;;;;;5072855;28;20031;-79
2023/09/24 11:58:38;;;;;;;4.35;0.90;;;17.00;60.80;;;;;;5072633;28;20068;-81
2023/09/24 12:01:09;;;;;;;2.03;1.08;;;17.00;60.80;;;;;;5059016;28;20082;-80
2023/09/24 12:03:37;;;;;;;1.75;0.85;;;17.00;60.90;;;;;;5071605;28;20024;-82
2023/09/24 12:06:05;;;;;;;2.92;0.98;;;17.00;60.80;;;;;;5062355;28;20112;-81
2023/09/24 12:08:32;;;;;;;1.88;0.88;;;16.90;61.00;;;;;;5047204;28;20059;-81
2023/09/24 12:11:00;;;;;;;4.18;1.45;;;16.80;61.30;;;;;;5067243;28;20059;-84
2023/09/24 12:13:27;;;;;;;3.42;1.33;;;16.80;61.60;;;;;;5060436;28;20119;-80
2023/09/24 12:15:54;;;;;;;4.20;1.05;;;16.80;61.70;;;;;;5065372;28;20017;-79
2023/09/24 12:18:22;;;;;;;1.92;1.10;;;16.80;61.90;;;;;;5064103;28;20107;-80
2023/09/24 12:20:49;;;;;;;5.03;1.02;;;16.70;62.10;;;;;;5056820;28;20025;-82
2023/09/24 12:23:16;;;;;;;1.27;1.00;;;16.70;62.10;;;;;;5056369;28;20480;-80
2023/09/24 12:25:45;;;;;;;3.53;0.93;;;16.70;62.40;;;;;;5051847;28;20111;-79
2023/09/24 12:28:16;;;;;;;4.40;1.08;;;16.70;62.40;;;;;;5055613;28;20087;-79
2023/09/24 12:30:46;;;;;;;2.13;0.88;;;16.70;62.30;;;;;;5059968;28;20028;-79
2023/09/24 12:33:14;;;;;;;4.20;1.10;;;16.60;62.40;;;;;;5062406;28;20037;-80
2023/09/24 12:35:41;;;;;;;3.45;0.90;;;16.60;62.50;;;;;;5056519;28;20025;-82
2023/09/24 12:38:09;;;;;;;1.67;0.90;;;16.50;62.60;;;;;;5033520;28;20041;-80
2023/09/24 12:40:36;;;;;;;3.35;1.17;;;16.50;62.70;;;;;;5033698;28;20033;-81
2023/09/24 12:43:04;;;;;;;2.25;0.90;;;16.50;62.80;;;;;;5044445;28;20029;-80
2023/09/24 12:45:31;;;;;;;2.67;0.93;;;16.40;62.80;;;;;;5034954;28;20026;-82
2023/09/24 12:47:59;;;;;;;1.88;0.90;;;16.40;62.90;;;;;;5047007;28;20086;-81
2023/09/24 12:50:27;;;;;;;2.60;1.00;;;16.40;63.10;;;;;;5050409;28;20017;-82
2023/09/24 12:52:54;;;;;;;3.55;1.02;;;16.40;63.20;;;;;;5045970;28;20127;-82
2023/09/24 12:55:22;;;;;;;1.27;0.73;;;16.30;63.10;;;;;;5039903;28;20064;-80
2023/09/24 12:57:49;;;;;;;3.03;0.90;;;16.20;63.40;;;;;;5045170;28;20052;-79